Time;durP1;ratioP1;P1;durP2;ratioP2;P2;SDS_P1;SDS_P2;PMS_P1;PMS_P2;Temp;Humidity;BMP_temperature;BMP_pressure;BME280_temperature;BME280_humidity;BME280_pressure;Samples;Min_cycle;Max_cycle;Signal;HPM_P1;HPM_P2
2022/10/19 03:02:32;;;;;;;;;;;21.60;53.30;;;;;;4902594;23;45544;-62
2022/10/19 03:04:57;;;;;;;;;;;21.60;53.40;;;;;;4922081;28;44938;-62
2022/10/19 03:07:23;;;;;;;;;;;21.60;53.40;;;;;;4921885;28;44982;-62
2022/10/19 03:09:49;;;;;;;;;;;21.60;53.40;;;;;;4922292;28;45927;-62
2022/10/19 03:12:14;;;;;;;;;;;21.60;53.40;;;;;;4923955;28;44794;-62
2022/10/19 03:14:40;;;;;;;;;;;21.60;53.40;;;;;;4924423;28;44950;-62
2022/10/19 03:17:05;;;;;;;;;;;21.60;53.40;;;;;;4928823;28;44959;-61
2022/10/19 03:19:31;;;;;;;;;;;21.60;53.40;;;;;;4927459;28;45100;-63
2022/10/19 03:21:57;;;;;;;;;;;21.60;53.40;;;;;;4926979;28;45053;-62
2022/10/19 03:24:22;;;;;;;;;;;21.60;53.40;;;;;;4926106;28;45108;-62
2022/10/19 03:26:48;;;;;;;;;;;21.60;53.40;;;;;;4918461;28;45488;-62
2022/10/19 03:29:13;;;;;;;;;;;21.60;53.40;;;;;;4919654;28;46069;-62
2022/10/19 03:31:39;;;;;;;;;;;21.60;53.40;;;;;;4925166;28;45364;-62
2022/10/19 03:34:04;;;;;;;;;;;21.60;53.40;;;;;;4925387;28;45091;-62
2022/10/19 03:36:31;;;;;;;;;;;21.60;53.40;;;;;;4930297;28;45177;-62
2022/10/19 03:38:57;;;;;;;;;;;21.60;53.40;;;;;;4896688;28;49024;-62
2022/10/19 03:41:24;;;;;;;;;;;21.60;53.30;;;;;;4932085;28;44889;-62
2022/10/19 03:43:49;;;;;;;;;;;21.60;53.30;;;;;;4928485;28;45025;-62
2022/10/19 03:46:15;;;;;;;;;;;21.60;53.40;;;;;;4931259;28;45305;-62
2022/10/19 03:48:40;;;;;;;;;;;21.60;53.30;;;;;;4927372;28;45017;-62
2022/10/19 03:51:07;;;;;;;;;;;21.60;53.30;;;;;;4927751;28;44940;-62
2022/10/19 03:53:33;;;;;;;;;;;21.60;53.30;;;;;;4923701;28;45271;-62
2022/10/19 03:56:01;;;;;;;;;;;21.60;53.30;;;;;;4926938;28;46507;-63
2022/10/19 03:58:27;;;;;;;;;;;21.60;53.30;;;;;;4926980;28;46314;-62
2022/10/19 04:00:53;;;;;;;;;;;21.60;53.30;;;;;;4921331;28;46461;-62
2022/10/19 04:03:18;;;;;;;;;;;21.60;53.40;;;;;;4925791;28;45068;-61
2022/10/19 04:05:44;;;;;;;;;;;21.60;53.30;;;;;;4930858;28;44778;-62
2022/10/19 04:08:09;;;;;;;;;;;21.60;53.30;;;;;;4929626;28;45175;-63
2022/10/19 04:10:35;;;;;;;;;;;21.60;53.30;;;;;;4932936;28;45192;-61
2022/10/19 04:13:01;;;;;;;;;;;21.60;53.50;;;;;;4930236;28;44686;-62
2022/10/19 04:15:26;;;;;;;;;;;21.60;53.30;;;;;;4931203;28;45192;-62
2022/10/19 04:17:52;;;;;;;;;;;21.60;53.30;;;;;;4928425;28;45082;-63
2022/10/19 04:20:17;;;;;;;;;;;21.60;53.30;;;;;;4921878;28;45187;-62
2022/10/19 04:22:43;;;;;;;;;;;21.60;53.30;;;;;;4932821;28;44789;-61
2022/10/19 04:25:09;;;;;;;;;;;21.60;53.30;;;;;;4928486;28;45068;-62
2022/10/19 04:27:34;;;;;;;;;;;21.60;53.30;;;;;;4933311;28;45383;-62
2022/10/19 04:30:00;;;;;;;;;;;21.60;53.30;;;;;;4931049;28;45400;-62
2022/10/19 04:32:25;;;;;;;;;;;21.60;53.30;;;;;;4927940;28;44910;-61
2022/10/19 04:34:51;;;;;;;;;;;21.50;53.30;;;;;;4929603;28;45363;-62
2022/10/19 04:37:16;;;;;;;;;;;21.60;53.30;;;;;;4928629;28;44989;-62
2022/10/19 04:39:43;;;;;;;;;;;21.60;53.30;;;;;;4929267;28;45218;-62
2022/10/19 04:42:09;;;;;;;;;;;21.60;53.30;;;;;;4923885;28;44983;-62
2022/10/19 04:44:34;;;;;;;;;;;21.60;53.30;;;;;;4928161;28;45136;-62
2022/10/19 04:47:00;;;;;;;;;;;21.50;53.30;;;;;;4929423;28;45162;-62
2022/10/19 04:49:25;;;;;;;;;;;21.60;53.30;;;;;;4926173;28;45076;-62
2022/10/19 04:51:51;;;;;;;;;;;21.50;53.30;;;;;;4926797;28;44896;-62
2022/10/19 04:54:16;;;;;;;;;;;21.50;53.30;;;;;;4927939;28;45383;-62
2022/10/19 04:56:42;;;;;;;;;;;21.50;53.30;;;;;;4928129;28;45016;-61
2022/10/19 04:59:08;;;;;;;;;;;21.50;53.30;;;;;;4926901;28;45093;-62
2022/10/19 05:01:34;;;;;;;;;;;21.50;53.30;;;;;;4911001;28;45331;-62
2022/10/19 05:04:00;;;;;;;;;;;21.60;53.30;;;;;;4925986;28;45338;-62
2022/10/19 05:06:26;;;;;;;;;;;21.50;53.30;;;;;;4927366;28;46081;-62
2022/10/19 05:08:52;;;;;;;;;;;21.50;53.30;;;;;;4914290;28;45247;-62
2022/10/19 05:11:17;;;;;;;;;;;21.50;53.30;;;;;;4926765;28;45143;-63
2022/10/19 05:13:43;;;;;;;;;;;21.50;53.30;;;;;;4924804;28;45317;-62
2022/10/19 05:16:09;;;;;;;;;;;21.50;53.30;;;;;;4921407;28;45997;-61
2022/10/19 05:18:35;;;;;;;;;;;21.50;53.30;;;;;;4925474;28;45149;-62
2022/10/19 05:21:02;;;;;;;;;;;21.50;53.30;;;;;;4924696;28;45177;-62
2022/10/19 05:23:49;;;;;;;;;;;21.50;53.30;;;;;;4924321;28;46144;-61
2022/10/19 05:26:16;;;;;;;;;;;21.50;53.30;;;;;;4909976;28;46167;-61
2022/10/19 05:28:42;;;;;;;;;;;21.50;53.30;;;;;;4925717;28;46280;-63
2022/10/19 05:31:11;;;;;;;;;;;21.50;53.30;;;;;;4917212;28;45128;-62
2022/10/19 05:33:37;;;;;;;;;;;21.50;53.30;;;;;;4944846;28;44921;-62
2022/10/19 05:36:18;;;;;;;;;;;21.50;53.30;;;;;;4930090;28;46068;-61
2022/10/19 05:38:45;;;;;;;;;;;21.50;53.30;;;;;;4929304;28;45189;-61
2022/10/19 05:41:10;;;;;;;;;;;21.50;53.30;;;;;;4929392;28;45154;-62
2022/10/19 05:43:36;;;;;;;;;;;21.50;53.30;;;;;;4931035;28;45112;-62
2022/10/19 05:46:05;;;;;;;;;;;21.50;53.30;;;;;;4915487;28;47470;-62
2022/10/19 05:48:32;;;;;;;;;;;21.50;53.30;;;;;;4931118;28;45112;-62
2022/10/19 05:50:58;;;;;;;;;;;21.50;53.30;;;;;;4932281;28;44895;-62
2022/10/19 05:53:24;;;;;;;;;;;21.50;53.30;;;;;;4929748;28;44866;-62
2022/10/19 05:55:50;;;;;;;;;;;21.50;53.30;;;;;;4927535;28;46100;-62
2022/10/19 05:58:15;;;;;;;;;;;21.50;53.30;;;;;;4930191;28;44919;-62
2022/10/19 06:00:40;;;;;;;;;;;21.50;53.30;;;;;;4930218;28;44944;-62
2022/10/19 06:03:06;;;;;;;;;;;21.50;53.30;;;;;;4923465;28;45123;-62
2022/10/19 06:05:31;;;;;;;;;;;21.50;53.30;;;;;;4910271;28;46167;-64
2022/10/19 06:07:57;;;;;;;;;;;21.50;53.30;;;;;;4910996;28;45163;-64
2022/10/19 06:10:22;;;;;;;;;;;21.50;53.30;;;;;;4930077;28;45249;-63
2022/10/19 06:12:48;;;;;;;;;;;21.50;53.30;;;;;;4914137;28;44849;-64
2022/10/19 06:15:14;;;;;;;;;;;21.50;53.20;;;;;;4928421;28;44981;-64
2022/10/19 06:17:39;;;;;;;;;;;21.50;53.20;;;;;;4930051;28;45108;-64
2022/10/19 06:20:05;;;;;;;;;;;21.60;53.20;;;;;;4928767;28;45276;-63
2022/10/19 06:22:30;;;;;;;;;;;21.60;53.20;;;;;;4929925;28;45044;-63
2022/10/19 06:24:56;;;;;;;;;;;21.60;53.10;;;;;;4928604;28;45081;-64
2022/10/19 06:27:21;;;;;;;;;;;21.60;53.10;;;;;;4928765;28;44985;-63
2022/10/19 06:29:47;;;;;;;;;;;21.60;53.10;;;;;;4930135;28;45110;-63
2022/10/19 06:32:12;;;;;;;;;;;21.70;53.10;;;;;;4930776;28;45692;-64
2022/10/19 06:34:38;;;;;;;;;;;21.70;53.10;;;;;;4934979;28;46116;-63
2022/10/19 06:37:03;;;;;;;;;;;21.70;53.00;;;;;;4914095;28;45337;-63
2022/10/19 06:39:29;;;;;;;;;;;21.70;53.00;;;;;;4928206;28;44917;-64
2022/10/19 06:41:54;;;;;;;;;;;21.70;53.00;;;;;;4929546;28;45146;-65
2022/10/19 06:44:20;;;;;;;;;;;21.70;53.00;;;;;;4930276;28;45222;-64
2022/10/19 06:46:46;;;;;;;;;;;21.80;53.00;;;;;;4926751;28;44898;-64
2022/10/19 06:49:12;;;;;;;;;;;21.80;53.00;;;;;;4910951;28;44877;-64
2022/10/19 06:51:39;;;;;;;;;;;21.80;52.90;;;;;;4911624;28;45273;-65
2022/10/19 06:54:05;;;;;;;;;;;21.80;53.00;;;;;;4922398;28;45624;-65
2022/10/19 06:56:30;;;;;;;;;;;21.80;52.90;;;;;;4929123;28;44953;-66
2022/10/19 06:58:56;;;;;;;;;;;21.80;52.90;;;;;;4906987;28;45108;-63
2022/10/19 07:01:21;;;;;;;;;;;21.80;52.90;;;;;;4926811;28;45086;-64
2022/10/19 07:03:47;;;;;;;;;;;21.80;52.90;;;;;;4912580;28;45770;-65
2022/10/19 07:06:12;;;;;;;;;;;21.80;52.90;;;;;;4927889;28;44922;-65
2022/10/19 07:08:38;;;;;;;;;;;21.80;52.90;;;;;;4930079;28;44806;-65
2022/10/19 07:11:05;;;;;;;;;;;21.80;52.90;;;;;;4932753;28;44958;-64
2022/10/19 07:13:30;;;;;;;;;;;21.80;52.90;;;;;;4937964;28;45550;-64
2022/10/19 07:15:57;;;;;;;;;;;21.90;52.90;;;;;;4928284;28;45014;-64
2022/10/19 07:18:22;;;;;;;;;;;21.90;52.80;;;;;;4930728;28;45202;-64
2022/10/19 07:20:54;;;;;;;;;;;21.90;52.80;;;;;;4933108;28;45834;-64
2022/10/19 07:23:20;;;;;;;;;;;21.90;52.80;;;;;;4931218;28;45106;-64
2022/10/19 07:25:45;;;;;;;;;;;21.90;52.80;;;;;;4930068;28;44980;-64
2022/10/19 07:28:11;;;;;;;;;;;21.90;52.80;;;;;;4925942;28;45026;-61
2022/10/19 07:30:37;;;;;;;;;;;21.90;52.80;;;;;;4925961;28;45216;-60
2022/10/19 07:33:03;;;;;;;;;;;21.90;52.90;;;;;;4924772;28;45137;-61
2022/10/19 07:35:29;;;;;;;;;;;21.90;52.80;;;;;;4928623;28;45054;-59
2022/10/19 07:37:54;;;;;;;;;;;21.90;52.90;;;;;;4927301;28;45215;-60
2022/10/19 07:40:20;;;;;;;;;;;21.90;53.00;;;;;;4931119;28;45699;-59
2022/10/19 07:42:45;;;;;;;;;;;21.90;53.00;;;;;;4929473;28;46112;-61
2022/10/19 07:45:11;;;;;;;;;;;21.90;53.00;;;;;;4923824;28;45116;-62
2022/10/19 07:47:36;;;;;;;;;;;21.90;53.00;;;;;;4927385;28;44698;-62
2022/10/19 07:50:02;;;;;;;;;;;21.90;53.00;;;;;;4927458;28;45502;-62
2022/10/19 07:52:27;;;;;;;;;;;21.90;53.00;;;;;;4924444;28;46153;-62
2022/10/19 07:54:54;;;;;;;;;;;21.90;53.00;;;;;;4926576;28;45257;-62
2022/10/19 07:57:21;;;;;;;;;;;21.90;53.00;;;;;;4924019;28;45363;-61
2022/10/19 07:59:46;;;;;;;;;;;21.90;53.00;;;;;;4921855;28;45202;-62
2022/10/19 08:02:15;;;;;;;;;;;21.90;53.00;;;;;;4922292;28;45903;-61
2022/10/19 08:04:41;;;;;;;;;;;21.90;53.00;;;;;;4927349;28;45117;-62
2022/10/19 08:07:06;;;;;;;;;;;22.00;53.00;;;;;;4924420;28;45001;-62
2022/10/19 08:09:32;;;;;;;;;;;21.90;53.00;;;;;;4940013;28;45333;-62
2022/10/19 08:11:57;;;;;;;;;;;22.00;53.00;;;;;;4922844;28;45372;-61
2022/10/19 08:14:23;;;;;;;;;;;22.00;53.00;;;;;;4926220;28;45379;-61
2022/10/19 08:16:50;;;;;;;;;;;22.00;53.00;;;;;;4919818;28;44908;-59
2022/10/19 08:19:15;;;;;;;;;;;22.00;53.00;;;;;;4929289;28;44964;-60
2022/10/19 08:21:42;;;;;;;;;;;22.00;52.90;;;;;;4921444;28;46265;-60
2022/10/19 08:24:07;;;;;;;;;;;22.00;52.90;;;;;;4931973;28;45111;-61
2022/10/19 08:26:34;;;;;;;;;;;22.00;52.90;;;;;;4928305;28;45289;-61
2022/10/19 08:29:00;;;;;;;;;;;22.00;52.80;;;;;;4920317;28;44855;-61
2022/10/19 08:31:25;;;;;;;;;;;22.00;52.80;;;;;;4929475;28;45866;-60
2022/10/19 08:33:51;;;;;;;;;;;22.10;52.80;;;;;;4932231;28;45664;-60
2022/10/19 08:36:18;;;;;;;;;;;22.10;52.80;;;;;;4930214;28;45703;-62
2022/10/19 08:38:44;;;;;;;;;;;22.10;52.70;;;;;;4930646;28;45227;-62
2022/10/19 08:41:12;;;;;;;;;;;22.10;52.80;;;;;;4925929;28;45945;-62
2022/10/19 08:43:38;;;;;;;;;;;22.10;52.80;;;;;;4925947;28;45268;-61
2022/10/19 08:46:09;;;;;;;;;;;22.00;52.70;;;;;;4928161;28;44994;-61
2022/10/19 08:48:35;;;;;;;;;;;22.00;52.80;;;;;;4923935;28;44852;-62
2022/10/19 08:51:01;;;;;;;;;;;22.00;52.80;;;;;;4920378;28;46193;-60
2022/10/19 08:53:33;;;;;;;;;;;22.00;52.80;;;;;;4923658;28;45248;-61
2022/10/19 08:56:04;;;;;;;;;;;22.10;52.80;;;;;;4921939;28;44972;-60
2022/10/19 08:58:53;;;;;;;;;;;22.10;52.80;;;;;;4925725;28;45081;-62
2022/10/19 09:01:37;;;;;;;;;;;22.10;52.80;;;;;;4917756;28;45366;-60
2022/10/19 09:04:05;;;;;;;;;;;22.10;52.80;;;;;;4925571;28;44952;-61
2022/10/19 09:06:35;;;;;;;;;;;22.10;52.80;;;;;;4926701;28;44997;-61
2022/10/19 09:09:01;;;;;;;;;;;22.10;52.80;;;;;;4921909;28;45237;-61
2022/10/19 09:11:28;;;;;;;;;;;22.10;52.70;;;;;;4924394;28;45253;-62
2022/10/19 09:13:56;;;;;;;;;;;22.10;52.70;;;;;;4924178;28;45143;-62
2022/10/19 09:16:21;;;;;;;;;;;22.10;52.70;;;;;;4921098;28;44892;-61
2022/10/19 09:18:48;;;;;;;;;;;22.10;52.70;;;;;;4926539;28;45291;-61
2022/10/19 09:21:13;;;;;;;;;;;22.10;52.70;;;;;;4919944;28;45579;-61
2022/10/19 09:23:39;;;;;;;;;;;22.10;52.80;;;;;;4927177;28;45085;-61
2022/10/19 09:26:07;;;;;;;;;;;22.10;52.70;;;;;;4925798;28;45297;-61
2022/10/19 09:28:32;;;;;;;;;;;22.10;52.70;;;;;;4923605;28;45001;-60
2022/10/19 09:30:58;;;;;;;;;;;22.20;52.80;;;;;;4922850;28;45930;-61
2022/10/19 09:33:26;;;;;;;;;;;22.20;52.80;;;;;;4928014;28;44962;-62
2022/10/19 09:35:51;;;;;;;;;;;22.20;52.80;;;;;;4929848;28;45244;-61
2022/10/19 09:38:25;;;;;;;;;;;22.20;52.70;;;;;;4923401;28;44924;-62
2022/10/19 09:40:50;;;;;;;;;;;22.20;52.80;;;;;;4926477;28;45084;-62
2022/10/19 09:43:20;;;;;;;;;;;22.20;52.80;;;;;;4927604;28;45155;-61
2022/10/19 09:45:48;;;;;;;;;;;22.20;52.80;;;;;;4925208;28;45029;-61
2022/10/19 09:48:16;;;;;;;;;;;22.20;52.70;;;;;;4927200;28;45017;-62
2022/10/19 09:50:42;;;;;;;;;;;22.20;52.70;;;;;;4928380;28;45775;-62
2022/10/19 09:53:10;;;;;;;;;;;22.20;52.70;;;;;;4924876;28;45083;-62
2022/10/19 09:55:35;;;;;;;;;;;22.20;52.70;;;;;;4911689;28;45446;-62
2022/10/19 09:58:01;;;;;;;;;;;22.20;52.60;;;;;;4928024;28;45130;-61
2022/10/19 10:00:34;;;;;;;;;;;22.20;52.60;;;;;;4927244;28;45171;-61
2022/10/19 10:02:59;;;;;;;;;;;22.20;52.60;;;;;;4924575;28;44944;-60
2022/10/19 10:05:34;;;;;;;;;;;22.20;52.60;;;;;;4928191;28;45002;-61
2022/10/19 10:08:00;;;;;;;;;;;22.20;52.70;;;;;;4929125;28;45426;-61
2022/10/19 10:10:27;;;;;;;;;;;22.20;52.60;;;;;;4924253;28;45032;-61
2022/10/19 10:12:52;;;;;;;;;;;22.20;52.70;;;;;;4915766;28;44930;-61
2022/10/19 10:15:20;;;;;;;;;;;22.20;52.70;;;;;;4928768;28;45161;-61
2022/10/19 10:17:46;;;;;;;;;;;22.20;52.80;;;;;;4928615;28;45642;-61
2022/10/19 10:20:22;;;;;;;;;;;22.20;52.80;;;;;;4929550;28;46080;-60
2022/10/19 10:22:51;;;;;;;;;;;22.20;52.80;;;;;;4931755;28;44843;-61
2022/10/19 10:25:17;;;;;;;;;;;22.20;52.80;;;;;;4934854;28;45154;-61
2022/10/19 10:27:43;;;;;;;;;;;22.20;52.90;;;;;;4936026;28;44917;-61
2022/10/19 10:30:14;;;;;;;;;;;22.20;52.80;;;;;;4928965;28;46311;-61
2022/10/19 10:32:47;;;;;;;;;;;22.20;52.80;;;;;;4931847;28;45003;-61
2022/10/19 10:35:16;;;;;;;;;;;22.20;52.80;;;;;;4934880;28;45305;-61
2022/10/19 10:37:42;;;;;;;;;;;22.20;52.80;;;;;;4929404;28;45363;-61
2022/10/19 10:40:17;;;;;;;;;;;22.20;52.70;;;;;;4927659;28;46045;-61
2022/10/19 10:42:43;;;;;;;;;;;22.20;52.70;;;;;;4923977;28;44846;-61
2022/10/19 10:45:15;;;;;;;;;;;22.20;52.70;;;;;;4932158;28;45144;-61
2022/10/19 10:47:40;;;;;;;;;;;22.20;52.70;;;;;;4925596;28;44818;-61
2022/10/19 10:50:06;;;;;;;;;;;22.20;52.70;;;;;;4913817;28;47370;-61
2022/10/19 10:52:32;;;;;;;;;;;22.20;52.70;;;;;;4929212;28;45326;-61
2022/10/19 10:54:57;;;;;;;;;;;22.20;52.70;;;;;;4909410;28;45255;-61
2022/10/19 10:57:23;;;;;;;;;;;22.20;52.70;;;;;;4923925;28;44767;-61
2022/10/19 10:59:48;;;;;;;;;;;22.10;52.60;;;;;;4929507;28;44944;-61
2022/10/19 11:02:25;;;;;;;;;;;22.20;52.60;;;;;;4928710;28;45062;-61
2022/10/19 11:04:53;;;;;;;;;;;22.10;52.60;;;;;;4929706;28;45019;-61
2022/10/19 11:07:19;;;;;;;;;;;22.10;52.60;;;;;;4931164;28;44892;-60
2022/10/19 11:10:08;;;;;;;;;;;22.10;52.60;;;;;;4932132;28;45905;-61
2022/10/19 11:12:36;;;;;;;;;;;22.10;52.70;;;;;;4927474;28;44679;-61
2022/10/19 11:15:02;;;;;;;;;;;22.20;52.70;;;;;;4932007;28;44935;-62
2022/10/19 11:17:29;;;;;;;;;;;22.20;52.70;;;;;;4931494;28;46178;-62
2022/10/19 11:19:54;;;;;;;;;;;22.20;52.70;;;;;;4930648;28;45587;-60
2022/10/19 11:22:27;;;;;;;;;;;22.10;52.60;;;;;;4932758;28;45372;-61
2022/10/19 11:24:56;;;;;;;;;;;22.20;52.70;;;;;;4930090;28;45220;-61
2022/10/19 11:27:25;;;;;;;;;;;22.20;52.70;;;;;;4931337;28;44978;-61
2022/10/19 11:29:57;;;;;;;;;;;22.20;52.70;;;;;;4923614;28;44967;-60
2022/10/19 11:32:39;;;;;;;;;;;22.10;52.70;;;;;;4910841;28;45191;-60
2022/10/19 11:35:08;;;;;;;;;;;22.20;52.70;;;;;;4927506;28;45866;-59
2022/10/19 11:37:52;;;;;;;;;;;22.20;52.80;;;;;;4932692;28;45031;-61
2022/10/19 11:40:21;;;;;;;;;;;22.20;52.70;;;;;;4931383;28;45197;-60
2022/10/19 11:42:47;;;;;;;;;;;22.20;52.70;;;;;;4931760;28;44856;-62
2022/10/19 11:45:19;;;;;;;;;;;22.20;52.70;;;;;;4927781;28;44746;-61
2022/10/19 11:47:58;;;;;;;;;;;22.20;52.70;;;;;;4932700;28;44730;-61
2022/10/19 11:50:37;;;;;;;;;;;22.20;52.70;;;;;;4929019;28;46187;-62
2022/10/19 11:53:06;;;;;;;;;;;22.20;52.70;;;;;;4933888;28;45035;-61
2022/10/19 11:55:44;;;;;;;;;;;22.20;52.60;;;;;;4926892;28;45106;-59
2022/10/19 11:58:18;;;;;;;;;;;22.30;52.60;;;;;;4934362;28;45113;-61
2022/10/19 12:00:46;;;;;;;;;;;22.20;52.60;;;;;;4929288;28;46265;-60
2022/10/19 12:03:21;;;;;;;;;;;22.30;52.60;;;;;;4897777;28;44985;-60
2022/10/19 12:06:08;;;;;;;;;;;22.20;52.60;;;;;;4935811;28;45078;-61
2022/10/19 12:08:33;;;;;;;;;;;22.20;52.70;;;;;;4917334;28;44925;-60
2022/10/19 12:11:19;;;;;;;;;;;22.20;52.70;;;;;;4935354;28;46186;-61
2022/10/19 12:14:02;;;;;;;;;;;22.20;52.70;;;;;;4936875;28;44957;-61
2022/10/19 12:16:37;;;;;;;;;;;22.20;52.70;;;;;;4913366;28;44930;-61
2022/10/19 12:19:03;;;;;;;;;;;22.20;52.70;;;;;;4916982;28;45166;-61
2022/10/19 12:21:35;;;;;;;;;;;22.30;52.70;;;;;;4936201;28;46439;-61
2022/10/19 12:24:02;;;;;;;;;;;22.30;52.70;;;;;;4910158;28;44683;-62
2022/10/19 12:26:28;;;;;;;;;;;22.30;52.60;;;;;;4919438;28;45174;-61
2022/10/19 12:28:54;;;;;;;;;;;22.40;52.60;;;;;;4899399;28;45393;-61
2022/10/19 12:31:20;;;;;;;;;;;22.40;52.60;;;;;;4913027;28;45509;-62
2022/10/19 12:34:05;;;;;;;;;;;22.40;52.60;;;;;;4935547;28;45047;-61
2022/10/19 12:36:33;;;;;;;;;;;22.40;52.60;;;;;;4936660;28;44842;-62
2022/10/19 12:39:06;;;;;;;;;;;22.30;52.60;;;;;;4932007;28;44981;-62
2022/10/19 12:41:35;;;;;;;;;;;22.40;52.60;;;;;;4917912;28;47282;-62
2022/10/19 12:44:21;;;;;;;;;;;22.40;52.70;;;;;;4935800;28;44695;-62
2022/10/19 12:46:48;;;;;;;;;;;22.40;52.60;;;;;;4930808;28;44962;-62
2022/10/19 12:49:29;;;;;;;;;;;22.40;52.60;;;;;;4915931;28;44699;-62
2022/10/19 12:51:55;;;;;;;;;;;22.40;52.60;;;;;;4934548;28;45086;-62
2022/10/19 12:54:21;;;;;;;;;;;22.40;52.70;;;;;;4917203;28;45131;-62
2022/10/19 12:56:47;;;;;;;;;;;22.30;52.50;;;;;;4918703;28;45038;-62
2022/10/19 12:59:22;;;;;;;;;;;22.40;52.60;;;;;;4932534;28;44985;-62
2022/10/19 13:01:48;;;;;;;;;;;22.40;52.70;;;;;;4931456;28;44952;-62
2022/10/19 13:04:14;;;;;;;;;;;22.40;52.60;;;;;;4933735;28;44950;-60
2022/10/19 13:06:40;;;;;;;;;;;22.40;52.60;;;;;;4936697;28;45212;-62
2022/10/19 13:09:07;;;;;;;;;;;22.40;52.60;;;;;;4930877;28;45262;-61
2022/10/19 13:11:32;;;;;;;;;;;22.40;52.60;;;;;;4913037;28;46048;-59
2022/10/19 13:13:58;;;;;;;;;;;22.50;52.60;;;;;;4936276;28;45838;-61
2022/10/19 13:16:44;;;;;;;;;;;22.50;52.50;;;;;;4939489;28;45001;-61
2022/10/19 13:19:13;;;;;;;;;;;22.50;52.60;;;;;;4911053;28;45052;-60
2022/10/19 13:21:50;;;;;;;;;;;22.50;52.60;;;;;;4928023;28;46886;-61
2022/10/19 13:24:22;;;;;;;;;;;22.50;52.50;;;;;;4925683;28;45014;-60
2022/10/19 13:27:07;;;;;;;;;;;22.50;52.50;;;;;;4928688;28;45220;-60
2022/10/19 13:29:36;;;;;;;;;;;22.50;52.50;;;;;;4928951;28;45304;-60
2022/10/19 13:32:20;;;;;;;;;;;22.50;52.50;;;;;;4929407;28;46195;-61
2022/10/19 13:34:46;;;;;;;;;;;22.50;52.50;;;;;;4922777;28;45142;-60
2022/10/19 13:37:11;;;;;;;;;;;22.50;52.50;;;;;;4926349;28;46216;-60
2022/10/19 13:39:37;;;;;;;;;;;22.50;52.50;;;;;;4907374;28;46697;-59
2022/10/19 13:42:02;;;;;;;;;;;22.50;52.50;;;;;;4926181;28;46102;-60
2022/10/19 13:44:29;;;;;;;;;;;22.50;52.50;;;;;;4926355;28;45271;-61
2022/10/19 13:47:14;;;;;;;;;;;22.60;52.50;;;;;;4928945;28;45017;-61
2022/10/19 13:49:58;;;;;;;;;;;22.60;52.50;;;;;;4929069;28;45732;-60
2022/10/19 13:52:46;;;;;;;;;;;22.60;52.40;;;;;;4926736;28;45255;-61
2022/10/19 13:55:30;;;;;;;;;;;22.60;52.40;;;;;;4927791;28;45254;-61
2022/10/19 13:58:01;;;;;;;;;;;22.60;52.40;;;;;;4928471;28;45038;-61
2022/10/19 14:00:43;;;;;;;;;;;22.60;52.40;;;;;;4927450;28;45627;-61
2022/10/19 14:03:09;;;;;;;;;;;22.60;52.40;;;;;;4928418;28;46092;-60
2022/10/19 14:05:43;;;;;;;;;;;22.60;52.40;;;;;;4929652;28;45338;-60
2022/10/19 14:08:18;;;;;;;;;;;22.60;52.30;;;;;;4929717;28;44834;-61
2022/10/19 14:10:45;;;;;;;;;;;22.60;52.30;;;;;;4925460;28;46507;-61
2022/10/19 14:13:11;;;;;;;;;;;22.60;52.30;;;;;;4926770;28;45500;-60
2022/10/19 14:15:37;;;;;;;;;;;22.60;52.30;;;;;;4925966;28;45145;-61
2022/10/19 14:18:02;;;;;;;;;;;22.70;52.30;;;;;;4926859;28;45295;-60
2022/10/19 14:20:30;;;;;;;;;;;22.60;52.30;;;;;;4925981;28;45206;-61
2022/10/19 14:22:55;;;;;;;;;;;22.70;52.30;;;;;;4928880;28;45862;-61
2022/10/19 14:25:22;;;;;;;;;;;22.70;52.30;;;;;;4925465;28;45040;-61
2022/10/19 14:27:49;;;;;;;;;;;22.70;52.30;;;;;;4929157;28;44740;-61
2022/10/19 14:30:21;;;;;;;;;;;22.60;52.20;;;;;;4927303;28;46109;-61
2022/10/19 14:32:47;;;;;;;;;;;22.70;52.30;;;;;;4922940;28;46378;-61
2022/10/19 14:35:20;;;;;;;;;;;22.70;52.30;;;;;;4924257;28;45677;-61
2022/10/19 14:37:46;;;;;;;;;;;22.70;52.40;;;;;;4906373;28;45112;-60
2022/10/19 14:40:21;;;;;;;;;;;22.70;52.30;;;;;;4923693;28;46084;-59
2022/10/19 14:42:46;;;;;;;;;;;22.70;52.40;;;;;;4926852;28;46186;-58
2022/10/19 14:45:16;;;;;;;;;;;22.70;52.30;;;;;;4926820;28;45150;-60
2022/10/19 14:47:51;;;;;;;;;;;22.70;52.30;;;;;;4932216;28;45011;-59
2022/10/19 14:50:17;;;;;;;;;;;22.70;52.40;;;;;;4931656;28;44826;-59
2022/10/19 14:52:43;;;;;;;;;;;22.70;52.40;;;;;;4928530;28;45687;-61
2022/10/19 14:55:09;;;;;;;;;;;22.70;52.40;;;;;;4926209;28;45288;-60
2022/10/19 14:57:35;;;;;;;;;;;22.70;52.30;;;;;;4929490;28;45118;-59
2022/10/19 15:00:02;;;;;;;;;;;22.70;52.30;;;;;;4931535;28;45181;-60
2022/10/19 15:02:32;;;;;;;;;;;22.70;52.40;;;;;;4910544;28;45726;-60
2022/10/19 15:04:58;;;;;;;;;;;22.70;52.30;;;;;;4931487;28;44903;-59
2022/10/19 15:07:37;;;;;;;;;;;22.70;52.30;;;;;;4930737;28;46097;-60
2022/10/19 15:10:04;;;;;;;;;;;22.70;52.30;;;;;;4927291;28;45074;-59
2022/10/19 15:12:36;;;;;;;;;;;22.70;52.30;;;;;;4929405;28;45094;-60
2022/10/19 15:15:08;;;;;;;;;;;22.70;52.30;;;;;;4932932;28;44706;-60
2022/10/19 15:17:36;;;;;;;;;;;22.80;52.30;;;;;;4929193;28;44770;-60
2022/10/19 15:20:02;;;;;;;;;;;22.80;52.30;;;;;;4932935;28;44735;-61
2022/10/19 15:22:30;;;;;;;;;;;22.70;52.30;;;;;;4931407;28;46022;-60
2022/10/19 15:25:19;;;;;;;;;;;22.80;52.30;;;;;;4931795;28;44952;-61
2022/10/19 15:27:46;;;;;;;;;;;22.80;52.30;;;;;;4932159;28;45488;-60
2022/10/19 15:30:17;;;;;;;;;;;22.70;52.30;;;;;;4932212;28;45161;-61
2022/10/19 15:32:43;;;;;;;;;;;22.80;52.30;;;;;;4933801;28;45297;-60
2022/10/19 15:35:15;;;;;;;;;;;22.70;52.30;;;;;;4937196;28;45324;-61
2022/10/19 15:37:41;;;;;;;;;;;22.80;52.30;;;;;;4938231;28;44778;-59
2022/10/19 15:40:10;;;;;;;;;;;22.80;52.30;;;;;;4916454;28;45163;-60
2022/10/19 15:42:37;;;;;;;;;;;22.70;52.30;;;;;;4931907;28;46401;-61
2022/10/19 15:45:22;;;;;;;;;;;22.70;52.30;;;;;;4933802;28;44914;-61
2022/10/19 15:48:06;;;;;;;;;;;22.70;52.30;;;;;;4934587;28;45118;-60
2022/10/19 15:50:35;;;;;;;;;;;22.70;52.30;;;;;;4935314;28;44959;-61
2022/10/19 15:53:00;;;;;;;;;;;22.80;52.40;;;;;;4934530;28;46099;-61
2022/10/19 15:55:26;;;;;;;;;;;22.70;52.30;;;;;;4933271;28;44826;-61
2022/10/19 15:57:56;;;;;;;;;;;22.80;52.30;;;;;;4933335;28;45052;-60
2022/10/19 16:00:22;;;;;;;;;;;22.70;52.30;;;;;;4929250;28;44986;-61
2022/10/19 16:02:47;;;;;;;;;;;22.80;52.30;;;;;;4929639;28;45093;-61
2022/10/19 16:05:13;;;;;;;;;;;22.80;52.40;;;;;;4932770;28;44993;-60
2022/10/19 16:07:39;;;;;;;;;;;22.80;52.40;;;;;;4936082;28;45061;-61
2022/10/19 16:10:05;;;;;;;;;;;22.80;52.40;;;;;;4933551;28;45126;-59
2022/10/19 16:12:30;;;;;;;;;;;22.80;52.40;;;;;;4934577;28;45739;-62
2022/10/19 16:14:56;;;;;;;;;;;22.80;52.30;;;;;;4932444;28;45046;-61
2022/10/19 16:17:21;;;;;;;;;;;22.70;52.30;;;;;;4926852;28;45352;-60
2022/10/19 16:19:47;;;;;;;;;;;22.80;52.40;;;;;;4924927;28;45059;-60
2022/10/19 16:22:12;;;;;;;;;;;22.80;52.30;;;;;;4923150;28;45803;-60
2022/10/19 16:24:38;;;;;;;;;;;22.80;52.40;;;;;;4921857;28;45235;-61
2022/10/19 16:27:04;;;;;;;;;;;22.70;52.50;;;;;;4925950;28;45624;-61
2022/10/19 16:29:29;;;;;;;;;;;22.70;52.40;;;;;;4927517;28;45118;-60
2022/10/19 16:31:55;;;;;;;;;;;22.70;52.50;;;;;;4925520;28;45742;-61
2022/10/19 16:34:20;;;;;;;;;;;22.70;52.50;;;;;;4904741;28;45190;-61
2022/10/19 16:36:46;;;;;;;;;;;22.70;52.60;;;;;;4918273;28;46225;-61
2022/10/19 16:39:11;;;;;;;;;;;22.60;52.60;;;;;;4922917;28;46477;-61
2022/10/19 16:41:37;;;;;;;;;;;22.60;52.60;;;;;;4925270;28;46464;-60
2022/10/19 16:44:03;;;;;;;;;;;22.60;52.60;;;;;;4929020;28;44962;-60
2022/10/19 16:46:31;;;;;;;;;;;22.60;52.60;;;;;;4929210;28;45052;-60
2022/10/19 16:48:56;;;;;;;;;;;22.60;52.60;;;;;;4926643;28;45181;-61
2022/10/19 16:51:35;;;;;;;;;;;22.50;52.60;;;;;;4927758;28;45249;-61
2022/10/19 16:54:01;;;;;;;;;;;22.50;52.60;;;;;;4940730;28;45035;-60
2022/10/19 16:56:27;;;;;;;;;;;22.60;52.70;;;;;;4927104;28;44867;-61
2022/10/19 16:58:53;;;;;;;;;;;22.50;52.60;;;;;;4928816;28;46193;-60
2022/10/19 17:01:19;;;;;;;;;;;22.50;52.70;;;;;;4927536;28;46039;-60
2022/10/19 17:03:44;;;;;;;;;;;22.50;52.70;;;;;;4929147;28;44939;-61
2022/10/19 17:06:10;;;;;;;;;;;22.50;52.80;;;;;;4926487;28;45376;-61
2022/10/19 17:08:36;;;;;;;;;;;22.50;52.70;;;;;;4929519;28;45118;-61
2022/10/19 17:11:31;;;;;;;;;;;22.50;52.70;;;;;;4926338;28;46336;-60
2022/10/19 17:13:57;;;;;;;;;;;22.50;52.70;;;;;;4910326;28;46334;-61
2022/10/19 17:16:23;;;;;;;;;;;22.40;52.70;;;;;;4924353;28;45336;-59
2022/10/19 17:18:49;;;;;;;;;;;22.50;52.70;;;;;;4927600;28;45156;-61
2022/10/19 17:21:16;;;;;;;;;;;22.40;52.70;;;;;;4925896;28;45397;-59
2022/10/19 17:23:42;;;;;;;;;;;22.40;52.80;;;;;;4927858;28;45174;-60